createdAt,value
2018-08-24T00:02:35.008Z,18.30
2018-08-24T00:07:39.791Z,18.30
2018-08-24T00:12:43.996Z,18.30
2018-08-24T00:17:48.872Z,18.20
2018-08-24T00:22:52.855Z,18.20
2018-08-24T00:27:57.178Z,18.20
2018-08-24T00:33:01.096Z,18.20
2018-08-24T00:38:07.622Z,18.20
2018-08-24T00:43:11.683Z,18.20
2018-08-24T00:48:16.769Z,18.20
2018-08-24T00:53:20.674Z,18.20
2018-08-24T00:58:24.966Z,18.10
2018-08-24T01:03:29.420Z,18.10
2018-08-24T01:08:33.580Z,18.10
2018-08-24T01:13:37.586Z,18.10
2018-08-24T01:18:46.898Z,18.10
2018-08-24T01:23:51.351Z,18.10
2018-08-24T01:28:55.587Z,18.00
2018-08-24T01:33:59.907Z,18.10
2018-08-24T01:39:05.629Z,18.00
2018-08-24T01:44:09.865Z,18.00
2018-08-24T01:49:15.268Z,18.00
2018-08-24T01:54:19.287Z,18.00
2018-08-24T01:59:23.410Z,18.00
2018-08-24T02:04:27.387Z,18.10
2018-08-24T02:09:31.590Z,18.10
2018-08-24T02:14:40.743Z,18.20
2018-08-24T02:19:50.449Z,18.10
2018-08-24T02:24:54.796Z,18.10
2018-08-24T02:29:59.353Z,18.00
2018-08-24T02:35:03.632Z,17.90
2018-08-24T02:40:08.185Z,17.90
2018-08-24T02:45:12.637Z,17.80
2018-08-24T02:50:17.690Z,17.90
2018-08-24T02:55:22.194Z,17.80
2018-08-24T03:00:26.670Z,17.80
2018-08-24T03:05:34.077Z,17.70
2018-08-24T03:10:38.610Z,17.60
2018-08-24T03:15:42.673Z,17.60
2018-08-24T03:20:48.189Z,17.60
2018-08-24T03:25:52.792Z,17.60
2018-08-24T03:30:57.981Z,17.60
2018-08-24T03:36:02.372Z,17.50
2018-08-24T03:41:06.759Z,17.50
2018-08-24T03:46:10.777Z,17.70
2018-08-24T03:51:15.404Z,17.70
2018-08-24T03:56:21.178Z,17.80
2018-08-24T04:01:25.748Z,17.80
2018-08-24T04:06:29.947Z,17.80
2018-08-24T04:11:34.165Z,17.70
2018-08-24T04:16:43.508Z,17.80
2018-08-24T04:21:48.392Z,17.80
2018-08-24T04:26:54.415Z,18.00
2018-08-24T04:31:58.855Z,17.80
2018-08-24T04:37:03.156Z,17.80
2018-08-24T04:42:07.614Z,17.70
2018-08-24T04:47:11.756Z,17.70
2018-08-24T04:52:18.882Z,17.80
2018-08-24T04:57:23.769Z,17.70
2018-08-24T05:02:28.102Z,17.70
2018-08-24T05:07:32.195Z,17.70
2018-08-24T05:12:36.226Z,17.40
2018-08-24T05:17:40.515Z,17.60
2018-08-24T05:22:44.605Z,17.60
2018-08-24T05:27:49.727Z,17.40
2018-08-24T05:32:59.437Z,17.50
2018-08-24T05:38:03.553Z,17.60
2018-08-24T05:43:08.187Z,17.30
2018-08-24T05:48:12.302Z,17.60
2018-08-24T05:53:16.929Z,17.60
2018-08-24T05:58:21.860Z,17.70
2018-08-24T06:03:29.425Z,18.00
2018-08-24T06:08:07.414Z,18.20
2018-08-24T06:10:11.389Z,18.50
2018-08-24T06:12:15.769Z,18.60
2018-08-24T06:14:21.298Z,18.80
2018-08-24T06:16:26.613Z,19.10
2018-08-24T06:18:31.036Z,19.00
2018-08-24T06:20:36.165Z,19.20
2018-08-24T06:24:23.223Z,19.40
2018-08-24T06:26:27.088Z,21.70
2018-08-24T06:28:32.516Z,22.50
2018-08-24T06:30:36.367Z,23.30
2018-08-24T06:32:41.318Z,24.00
2018-08-24T06:34:45.243Z,23.30
2018-08-24T06:36:50.061Z,23.30
2018-08-24T06:38:54.524Z,23.90
2018-08-24T06:40:58.757Z,24.80
2018-08-24T06:43:02.977Z,25.30
2018-08-24T06:45:07.579Z,25.90
2018-08-24T06:47:11.460Z,26.40
2018-08-24T06:49:15.655Z,26.70
2018-08-24T06:51:20.429Z,27.20
2018-08-24T06:53:24.665Z,27.20
2018-08-24T06:55:28.532Z,27.50
2018-08-24T06:57:32.444Z,27.70
2018-08-24T06:59:36.485Z,27.30
2018-08-24T07:01:40.455Z,26.90
2018-08-24T07:03:44.516Z,27.40
2018-08-24T07:05:56.706Z,27.30
2018-08-24T07:13:21.680Z,27.10
2018-08-24T07:15:33.530Z,28.00
2018-08-24T07:17:50.376Z,27.40
2018-08-24T07:19:59.401Z,27.60
2018-08-24T07:22:03.520Z,28.00
2018-08-24T07:24:07.525Z,28.00
2018-08-24T07:26:12.246Z,28.00
2018-08-24T07:28:24.918Z,28.40
2018-08-24T07:30:38.693Z,29.10
2018-08-24T07:32:42.747Z,29.50
2018-08-24T07:34:47.379Z,28.90
2018-08-24T07:36:51.605Z,28.80
2018-08-24T07:38:56.386Z,28.00
2018-08-24T07:41:00.428Z,28.50
2018-08-24T07:43:04.356Z,27.80
2018-08-24T07:45:08.430Z,28.10
2018-08-24T07:47:12.387Z,28.90
2018-08-24T07:49:27.840Z,29.00
2018-08-24T07:51:32.635Z,29.30
2018-08-24T07:53:37.638Z,29.60
2018-08-24T07:55:42.389Z,29.70
2018-08-24T07:58:01.746Z,29.00
2018-08-24T08:00:06.311Z,28.10
2018-08-24T08:02:10.628Z,27.60
2018-08-24T08:04:14.548Z,27.60
2018-08-24T08:06:18.452Z,27.30
2018-08-24T08:08:22.381Z,26.80
2018-08-24T08:10:30.896Z,25.70
2018-08-24T08:12:36.504Z,25.90
2018-08-24T08:14:44.903Z,26.80
2018-08-24T08:16:52.993Z,28.00
2018-08-24T08:18:56.891Z,28.20
2018-08-24T08:21:00.948Z,28.60
2018-08-24T08:23:06.136Z,28.90
2018-08-24T08:25:10.737Z,28.00
2018-08-24T08:27:15.127Z,27.80
2018-08-24T08:29:24.487Z,27.30
2018-08-24T08:31:28.607Z,27.10
2018-08-24T08:33:32.442Z,27.50
2018-08-24T08:35:36.363Z,27.50
2018-08-24T08:37:40.403Z,25.90
2018-08-24T08:39:44.963Z,25.10
2018-08-24T08:41:49.671Z,24.30
2018-08-24T08:43:53.575Z,23.60
2018-08-24T08:45:57.756Z,22.90
2018-08-24T08:48:03.865Z,22.70
2018-08-24T08:50:09.628Z,22.80
2018-08-24T08:52:32.990Z,22.90
2018-08-24T08:54:37.165Z,23.00
2018-08-24T08:56:41.625Z,23.00
2018-08-24T08:58:47.599Z,22.90
2018-08-24T09:00:51.952Z,23.00
2018-08-24T09:02:55.906Z,22.70
2018-08-24T09:05:00.012Z,23.00
2018-08-24T09:07:04.167Z,22.60
2018-08-24T09:09:09.412Z,22.20
2018-08-24T09:11:14.919Z,22.30
2018-08-24T09:13:19.214Z,22.10
2018-08-24T09:15:23.348Z,22.00
2018-08-24T09:17:32.739Z,21.70
2018-08-24T09:19:41.972Z,21.50
2018-08-24T09:21:51.695Z,21.20
2018-08-24T09:24:00.894Z,21.10
2018-08-24T09:26:10.385Z,21.00
2018-08-24T09:28:18.928Z,20.90
2018-08-24T09:30:24.026Z,20.80
2018-08-24T09:32:28.015Z,21.00
2018-08-24T09:34:31.972Z,20.70
2018-08-24T09:36:35.973Z,20.40
2018-08-24T09:38:40.005Z,20.90
2018-08-24T09:40:49.346Z,21.20
2018-08-24T09:42:53.543Z,21.50
2018-08-24T09:44:57.496Z,21.60
2018-08-24T09:47:06.708Z,21.60
2018-08-24T09:49:16.004Z,21.80
2018-08-24T09:51:25.428Z,22.00
2018-08-24T09:53:34.701Z,22.00
2018-08-24T09:55:39.857Z,22.20
2018-08-24T09:57:44.636Z,22.10
2018-08-24T09:59:49.172Z,22.40
2018-08-24T10:01:58.456Z,22.60
2018-08-24T10:04:07.804Z,22.70
2018-08-24T10:06:17.794Z,22.50
2018-08-24T10:08:27.186Z,22.30
2018-08-24T10:10:31.453Z,22.20
2018-08-24T10:12:35.953Z,22.10
2018-08-24T10:14:39.973Z,21.90
2018-08-24T10:16:45.156Z,21.90
2018-08-24T10:18:49.425Z,22.00
2018-08-24T10:20:54.125Z,22.20
2018-08-24T10:22:58.426Z,22.30
2018-08-24T10:25:03.124Z,22.20
2018-08-24T10:27:07.095Z,22.10
2018-08-24T10:29:11.150Z,22.20
2018-08-24T10:31:15.990Z,22.00
2018-08-24T10:33:20.289Z,21.60
2018-08-24T10:35:24.314Z,21.40
2018-08-24T10:37:28.293Z,21.70
2018-08-24T10:39:32.321Z,21.60
2018-08-24T10:41:36.460Z,21.70
2018-08-24T10:43:40.600Z,21.70
2018-08-24T10:45:45.613Z,21.60
2018-08-24T10:47:50.577Z,21.80
2018-08-24T10:49:54.754Z,21.70
2018-08-24T10:51:58.596Z,21.60
2018-08-24T10:54:02.788Z,21.40
2018-08-24T10:56:06.881Z,21.40
2018-08-24T10:58:11.056Z,21.20
2018-08-24T11:00:16.314Z,21.30
2018-08-24T11:02:20.545Z,21.30
2018-08-24T11:04:24.551Z,21.10
2018-08-24T11:06:28.500Z,21.10
2018-08-24T11:08:32.542Z,21.30
2018-08-24T11:10:36.504Z,21.40
2018-08-24T11:12:40.788Z,21.30
2018-08-24T11:14:45.812Z,21.40
2018-08-24T11:16:50.715Z,21.40
2018-08-24T11:18:54.737Z,21.20
2018-08-24T11:20:58.773Z,21.30
2018-08-24T11:23:03.182Z,21.20
2018-08-24T11:25:07.267Z,21.20
2018-08-24T11:27:12.595Z,21.30
2018-08-24T11:29:17.238Z,21.30
2018-08-24T11:31:21.360Z,21.20
2018-08-24T11:33:25.497Z,21.00
2018-08-24T11:35:30.253Z,21.10
2018-08-24T11:37:34.476Z,21.10
2018-08-24T11:39:38.455Z,21.20
2018-08-24T11:41:43.321Z,21.30
2018-08-24T11:43:47.777Z,21.10
2018-08-24T11:45:51.968Z,21.20
2018-08-24T11:47:56.003Z,21.10
2018-08-24T11:50:00.144Z,21.10
2018-08-24T11:52:04.424Z,21.00
2018-08-24T11:54:08.560Z,21.00
2018-08-24T11:56:13.161Z,21.10
2018-08-24T11:58:17.481Z,21.00
2018-08-24T12:00:25.762Z,21.20
2018-08-24T12:02:30.229Z,21.30
2018-08-24T12:04:34.857Z,21.40
2018-08-24T12:06:38.917Z,21.10
2018-08-24T12:08:44.695Z,21.00
2018-08-24T12:10:49.340Z,21.00
2018-08-24T12:12:53.900Z,21.00
2018-08-24T12:14:58.416Z,21.10
2018-08-24T12:17:03.326Z,21.30
2018-08-24T12:19:07.455Z,21.10
2018-08-24T12:21:12.058Z,21.20
2018-08-24T12:23:17.375Z,21.20
2018-08-24T12:25:21.818Z,21.20
2018-08-24T12:27:27.033Z,21.20
2018-08-24T12:29:31.042Z,20.80
2018-08-24T12:31:35.500Z,20.80
2018-08-24T12:33:39.527Z,20.80
2018-08-24T12:35:46.017Z,20.80
2018-08-24T12:37:50.396Z,20.80
2018-08-24T12:39:56.158Z,20.80
2018-08-24T12:42:00.346Z,20.70
2018-08-24T12:44:04.392Z,21.00
2018-08-24T12:46:08.991Z,21.20
2018-08-24T12:48:14.972Z,21.00
2018-08-24T12:50:19.287Z,21.00
2018-08-24T12:52:23.401Z,21.00
2018-08-24T12:54:27.614Z,20.70
2018-08-24T12:56:31.677Z,20.40
2018-08-24T12:58:35.902Z,20.50
2018-08-24T13:00:40.077Z,20.30
2018-08-24T14:10:16.147Z,20.60
2018-08-24T14:12:21.117Z,20.60
2018-08-24T14:14:25.487Z,20.50
2018-08-24T14:16:29.586Z,20.50
2018-08-24T14:18:33.994Z,20.40
2018-08-24T14:20:38.529Z,20.50
2018-08-24T14:22:43.206Z,20.40
2018-08-24T14:24:47.526Z,20.30
2018-08-24T14:26:53.046Z,20.20
2018-08-24T14:28:57.322Z,20.40
2018-08-24T14:31:01.537Z,20.30
2018-08-24T14:34:34.877Z,20.60
2018-08-24T14:36:39.258Z,20.60
2018-08-24T14:38:43.853Z,20.60
2018-08-24T14:40:48.063Z,20.50
2018-08-24T14:42:52.382Z,20.50
2018-08-24T14:44:56.555Z,20.30
2018-08-24T14:49:04.310Z,20.00
2018-08-24T14:51:08.623Z,20.10
2018-08-24T14:55:17.978Z,20.20
2018-08-24T14:57:23.501Z,20.30
2018-08-24T14:59:27.659Z,20.30
2018-08-24T15:01:31.752Z,20.10
2018-08-24T15:03:35.893Z,20.00
2018-08-24T15:05:40.118Z,20.20
2018-08-24T15:07:46.306Z,20.30
2018-08-24T15:09:51.044Z,20.00
2018-08-24T15:11:55.221Z,20.20
2018-08-24T15:13:59.338Z,20.20
2018-08-24T15:16:03.884Z,20.10
2018-08-24T15:18:08.758Z,19.90
2018-08-24T15:20:15.799Z,19.90
2018-08-24T15:22:20.483Z,20.00
2018-08-24T15:24:24.734Z,19.90
2018-08-24T15:26:28.702Z,20.00
2018-08-24T15:28:32.798Z,20.10
2018-08-24T15:30:37.261Z,20.20
2018-08-24T15:32:42.242Z,20.20
2018-08-24T15:34:47.248Z,20.20
2018-08-24T15:36:52.166Z,20.20
2018-08-24T15:38:56.278Z,20.20
2018-08-24T15:41:02.385Z,20.10
2018-08-24T15:43:06.393Z,20.10
2018-08-24T15:45:10.689Z,20.10
2018-08-24T15:47:15.892Z,20.00
2018-08-24T15:49:20.284Z,20.00
2018-08-24T15:51:24.477Z,20.10
2018-08-24T15:53:28.751Z,20.10
2018-08-24T15:55:33.256Z,20.00
2018-08-24T15:57:37.529Z,20.10
2018-08-24T15:59:41.696Z,20.10
2018-08-24T16:01:46.408Z,20.10
2018-08-24T16:03:51.178Z,19.90
2018-08-24T16:05:55.514Z,20.00
2018-08-24T16:07:59.722Z,20.00
2018-08-24T16:10:03.772Z,20.00
2018-08-24T16:12:08.136Z,20.00
2018-08-24T16:14:12.878Z,19.90
2018-08-24T16:16:17.208Z,19.90
2018-08-24T16:18:22.616Z,19.80
2018-08-24T16:20:27.152Z,19.70
2018-08-24T16:22:31.163Z,19.70
2018-08-24T16:24:35.276Z,19.70
2018-08-24T16:26:39.522Z,19.60
2018-08-24T16:28:44.176Z,19.90
2018-08-24T16:30:48.762Z,19.90
2018-08-24T16:32:53.141Z,19.90
2018-08-24T16:34:57.256Z,19.90
2018-08-24T16:37:01.262Z,19.70
2018-08-24T16:39:08.489Z,19.90
2018-08-24T16:41:13.884Z,19.90
2018-08-24T16:43:18.150Z,19.90
2018-08-24T16:45:22.639Z,19.80
2018-08-24T16:49:30.652Z,19.70
2018-08-24T16:51:34.813Z,19.80
2018-08-24T16:53:38.903Z,19.60
2018-08-24T16:55:44.174Z,19.70
2018-08-24T16:57:51.030Z,19.90
2018-08-24T16:59:55.268Z,19.80
2018-08-24T17:01:59.172Z,20.10
2018-08-24T17:04:03.720Z,20.00
2018-08-24T17:06:08.153Z,19.90
2018-08-24T17:08:13.346Z,19.90
2018-08-24T17:10:17.636Z,19.80
2018-08-24T17:12:21.726Z,19.80
2018-08-24T17:14:26.142Z,19.70
2018-08-24T17:16:30.323Z,19.70
2018-08-24T17:18:34.535Z,19.60
2018-08-24T17:20:39.113Z,19.70
2018-08-24T17:22:44.130Z,19.60
2018-08-24T17:24:48.704Z,19.70
2018-08-24T17:26:53.310Z,19.70
2018-08-24T17:28:57.566Z,19.80
2018-08-24T17:31:02.133Z,19.80
2018-08-24T17:33:06.577Z,19.80
2018-08-24T17:35:10.744Z,19.70
2018-08-24T17:37:15.820Z,19.60
2018-08-24T17:39:20.173Z,19.60
2018-08-24T17:41:24.100Z,19.50
2018-08-24T17:50:09.868Z,19.40
2018-08-24T17:52:14.237Z,19.20
2018-08-24T17:54:19.831Z,19.30
2018-08-24T17:56:25.221Z,18.90
2018-08-24T17:58:29.377Z,19.10
2018-08-24T18:00:34.154Z,19.20
2018-08-24T18:02:38.549Z,19.10
2018-08-24T18:04:43.658Z,18.90
2018-08-24T18:06:47.848Z,19.00
2018-08-24T18:08:52.630Z,19.10
2018-08-24T18:10:56.658Z,19.00
2018-08-24T18:13:00.761Z,19.00
2018-08-24T18:15:05.260Z,18.90
2018-08-24T18:17:09.215Z,19.00
2018-08-24T18:19:13.701Z,19.00
2018-08-24T18:21:18.557Z,18.70
2018-08-24T18:23:22.721Z,18.80
2018-08-24T18:25:26.882Z,18.70
2018-08-24T18:27:30.833Z,18.90
2018-08-24T18:29:35.099Z,19.00
2018-08-24T18:31:39.427Z,19.00
2018-08-24T18:33:44.340Z,19.00
2018-08-24T18:35:48.710Z,19.00
2018-08-24T18:37:52.911Z,18.80
2018-08-24T18:39:57.612Z,18.90
2018-08-24T18:42:02.274Z,19.00
2018-08-24T18:44:06.417Z,19.00
2018-08-24T18:46:10.627Z,19.00
2018-08-24T18:48:15.059Z,18.80
2018-08-24T18:50:19.232Z,18.70
2018-08-24T18:52:24.069Z,18.90
2018-08-24T18:54:28.177Z,18.90
2018-08-24T18:56:32.632Z,18.80
2018-08-24T18:58:37.082Z,18.70
2018-08-24T19:00:41.609Z,18.50
2018-08-24T19:02:46.109Z,18.40
2018-08-24T19:04:51.030Z,18.40
2018-08-24T19:06:55.456Z,18.40
2018-08-24T19:09:00.110Z,18.20
2018-08-24T19:11:11.790Z,18.40
2018-08-24T19:13:17.510Z,18.40
2018-08-24T19:15:21.874Z,18.30
2018-08-24T19:17:31.419Z,18.40
2018-08-24T19:19:41.234Z,18.40
2018-08-24T19:21:47.758Z,18.30
2018-08-24T19:23:52.283Z,18.30
2018-08-24T19:25:56.644Z,18.30
2018-08-24T19:28:06.253Z,18.20
2018-08-24T19:30:16.272Z,18.10
2018-08-24T19:32:20.698Z,18.10
2018-08-24T19:34:24.672Z,18.20
2018-08-24T19:36:28.699Z,18.20
2018-08-24T19:38:32.631Z,18.20
2018-08-24T19:40:42.231Z,18.20
2018-08-24T19:42:47.609Z,18.20
2018-08-24T19:46:21.309Z,18.10
2018-08-24T19:48:31.205Z,18.10
2018-08-24T19:50:35.228Z,18.10
2018-08-24T19:52:39.434Z,18.10
2018-08-24T19:54:43.606Z,18.00
2018-08-24T19:56:48.030Z,18.00
2018-08-24T19:58:57.850Z,18.00
2018-08-24T20:01:01.996Z,17.90
2018-08-24T20:03:06.457Z,17.90
2018-08-24T20:05:10.465Z,17.80
2018-08-24T20:07:19.881Z,17.80
2018-08-24T20:09:29.413Z,17.80
2018-08-24T20:11:33.529Z,17.80
2018-08-24T20:13:37.685Z,17.80
2018-08-24T20:15:47.123Z,17.70
2018-08-24T20:17:51.518Z,17.80
2018-08-24T20:19:55.491Z,17.80
2018-08-24T20:21:59.570Z,17.70
2018-08-24T20:24:03.656Z,17.60
2018-08-24T20:26:07.753Z,17.60
2018-08-24T20:28:13.591Z,17.70
2018-08-24T20:30:18.026Z,17.70
2018-08-24T20:32:22.315Z,17.60
2018-08-24T20:34:26.978Z,17.50
2018-08-24T20:36:31.501Z,17.50
2018-08-24T20:38:35.742Z,17.50
2018-08-24T20:40:40.013Z,17.50
2018-08-24T20:42:44.066Z,17.50
2018-08-24T20:44:48.502Z,17.50
2018-08-24T20:46:53.079Z,17.50
2018-08-24T20:48:57.459Z,17.50
2018-08-24T20:51:01.768Z,17.40
2018-08-24T20:53:06.056Z,17.40
2018-08-24T20:55:10.042Z,17.50
2018-08-24T20:57:14.624Z,17.50
2018-08-24T20:59:18.956Z,17.40
2018-08-24T21:01:23.154Z,17.10
2018-08-24T21:03:27.413Z,16.70
2018-08-24T21:05:31.552Z,16.50
2018-08-24T21:07:37.110Z,16.00
2018-08-24T21:09:42.523Z,15.50
2018-08-24T21:11:46.930Z,15.60
2018-08-24T21:13:52.000Z,15.60
2018-08-24T21:15:56.165Z,15.60
2018-08-24T21:18:00.359Z,15.70
2018-08-24T21:20:06.433Z,15.60
2018-08-24T21:22:11.443Z,15.50
2018-08-24T21:24:16.198Z,15.70
2018-08-24T21:26:20.787Z,15.30
2018-08-24T21:28:25.373Z,15.20
2018-08-24T21:30:29.421Z,15.40
2018-08-24T21:32:33.755Z,15.40
2018-08-24T21:34:37.911Z,15.40
2018-08-24T21:36:42.435Z,15.40
2018-08-24T21:38:52.789Z,15.40
2018-08-24T21:40:58.038Z,15.40
2018-08-24T21:43:03.134Z,15.30
2018-08-24T21:45:07.039Z,15.10
2018-08-24T21:47:11.240Z,15.10
2018-08-24T21:49:16.958Z,15.10
2018-08-24T21:51:21.514Z,15.00
2018-08-24T21:53:25.935Z,15.20
2018-08-24T21:55:29.832Z,15.50
2018-08-24T21:57:33.915Z,15.50
2018-08-24T21:59:38.131Z,15.70
2018-08-24T22:01:43.817Z,15.80
2018-08-24T22:03:48.852Z,15.40
2018-08-24T22:05:53.114Z,15.50
2018-08-24T22:07:57.460Z,15.70
2018-08-24T22:10:03.701Z,15.80
2018-08-24T22:12:08.416Z,15.90
2018-08-24T22:14:14.308Z,15.90
2018-08-24T22:16:18.872Z,15.90
2018-08-24T22:18:23.276Z,15.80
2018-08-24T22:20:27.476Z,15.90
2018-08-24T22:22:31.622Z,15.90
2018-08-24T22:24:35.598Z,16.00
2018-08-24T22:26:39.652Z,16.00
2018-08-24T22:28:44.884Z,16.00
2018-08-24T22:30:49.375Z,15.90
2018-08-24T22:32:53.398Z,15.90
2018-08-24T22:34:57.440Z,15.70
2018-08-24T22:37:01.389Z,15.80
2018-08-24T22:39:07.295Z,15.90
2018-08-24T22:41:11.571Z,16.00
2018-08-24T22:43:21.333Z,16.00
2018-08-24T22:45:25.487Z,15.90
2018-08-24T22:47:29.665Z,15.80
2018-08-24T22:49:33.772Z,15.80
2018-08-24T22:51:37.824Z,15.80
2018-08-24T22:53:42.485Z,15.80
2018-08-24T22:55:46.807Z,15.80
2018-08-24T22:57:51.270Z,15.80
2018-08-24T22:59:55.244Z,15.80
2018-08-24T23:01:59.218Z,15.90
2018-08-24T23:04:03.507Z,15.70
2018-08-24T23:06:07.722Z,15.60
2018-08-24T23:08:11.861Z,15.60
2018-08-24T23:10:16.303Z,15.60
2018-08-24T23:12:27.403Z,15.50
2018-08-24T23:14:31.349Z,15.30
2018-08-24T23:16:37.144Z,15.20
2018-08-24T23:18:42.558Z,15.20
2018-08-24T23:20:46.945Z,15.20
2018-08-24T23:22:51.340Z,15.20
2018-08-24T23:24:55.576Z,15.20
2018-08-24T23:26:59.796Z,15.20
2018-08-24T23:29:04.843Z,15.20
2018-08-24T23:31:09.016Z,15.30
2018-08-24T23:33:14.812Z,15.50
2018-08-24T23:35:19.374Z,15.10
2018-08-24T23:37:23.562Z,15.10
2018-08-24T23:39:27.640Z,14.90
2018-08-24T23:41:36.997Z,14.90
2018-08-24T23:43:42.452Z,15.00
2018-08-24T23:45:46.849Z,15.00
2018-08-24T23:47:51.637Z,15.00
2018-08-24T23:49:55.851Z,15.10
2018-08-24T23:51:59.913Z,15.10
2018-08-24T23:54:04.275Z,14.90
2018-08-24T23:56:08.279Z,14.90
2018-08-24T23:58:17.082Z,15.00
